Time;durP1;ratioP1;P1;durP2;ratioP2;P2;SDS_P1;SDS_P2;PMS_P1;PMS_P2;Temp;Humidity;BMP_temperature;BMP_pressure;BME280_temperature;BME280_humidity;BME280_pressure;Samples;Min_cycle;Max_cycle;Signal;HPM_P1;HPM_P2
2022/08/13 00:01:04;;;;;;;11.95;2.55;;;;;;;28.81;26.33;101318.84;5021429;28;20041;-65
2022/08/13 00:03:30;;;;;;;4.32;2.40;;;;;;;28.76;26.26;101319.53;5035544;28;20025;-64
2022/08/13 00:05:56;;;;;;;7.68;3.17;;;;;;;28.72;26.46;101318.34;5018549;28;20032;-66
2022/08/13 00:08:24;;;;;;;4.60;2.30;;;;;;;28.67;26.26;101315.44;5042968;28;20033;-66
2022/08/13 00:10:51;;;;;;;7.45;3.05;;;;;;;28.65;26.30;101323.13;5032174;28;20038;-65
2022/08/13 00:13:18;;;;;;;3.65;3.08;;;;;;;28.59;26.77;101312.16;5015585;28;20022;-65
2022/08/13 00:15:45;;;;;;;11.07;3.25;;;;;;;28.57;26.08;101319.81;5031886;28;20041;-64
2022/08/13 00:18:14;;;;;;;3.30;3.00;;;;;;;28.53;26.47;101307.59;5039699;28;20029;-64
2022/08/13 00:20:47;;;;;;;8.60;3.50;;;;;;;28.50;26.40;101308.91;5035388;28;20028;-65
2022/08/13 00:23:14;;;;;;;6.43;3.88;;;;;;;28.52;26.60;101314.19;5051854;28;20114;-66
2022/08/13 00:25:40;;;;;;;6.53;3.30;;;;;;;28.54;27.08;101321.13;5051762;28;20053;-65
2022/08/13 00:28:05;;;;;;;4.10;3.70;;;;;;;28.54;26.81;101320.28;5035664;28;20580;-65
2022/08/13 00:30:33;;;;;;;4.75;3.58;;;;;;;28.52;27.03;101317.78;5051663;28;20033;-65
2022/08/13 00:33:12;;;;;;;4.00;3.13;;;;;;;28.48;27.01;101315.72;5053038;28;20029;-65
2022/08/13 00:35:42;;;;;;;4.65;3.33;;;;;;;28.46;27.04;101312.34;5047335;28;20087;-65
2022/08/13 00:38:11;;;;;;;5.30;4.07;;;;;;;28.41;26.77;101317.75;5035858;28;20018;-65
2022/08/13 00:40:41;;;;;;;6.70;3.60;;;;;;;28.33;27.10;101321.69;5015488;28;20037;-66
2022/08/13 00:43:07;;;;;;;8.00;3.90;;;;;;;28.29;26.76;101318.53;5015325;28;20017;-65
2022/08/13 00:45:33;;;;;;;8.95;3.38;;;;;;;28.20;26.91;101314.41;5031796;28;20032;-66
2022/08/13 00:50:44;;;;;;;5.65;3.15;;;;;;;28.04;27.65;101315.06;5052091;28;20040;-65
2022/08/13 00:53:16;;;;;;;6.30;3.53;;;;;;;27.95;27.59;101310.91;5052894;28;20043;-65
2022/08/13 00:55:45;;;;;;;11.68;3.35;;;;;;;27.88;27.07;101310.16;5051674;28;20028;-65
2022/08/13 00:58:11;;;;;;;8.23;3.40;;;;;;;27.81;27.71;101314.91;5035236;28;20029;-65
2022/08/13 01:00:37;;;;;;;6.65;3.60;;;;;;;27.76;27.69;101312.00;5035088;28;20021;-65
2022/08/13 01:03:03;;;;;;;8.80;3.45;;;;;;;27.71;27.73;101309.09;5051532;28;20028;-65
2022/08/13 01:05:31;;;;;;;3.03;2.78;;;;;;;27.67;27.41;101313.38;5035034;28;20029;-65
2022/08/13 01:07:57;;;;;;;3.30;3.00;;;;;;;27.62;27.29;101315.97;5045619;28;20471;-65
2022/08/13 01:10:22;;;;;;;5.95;3.15;;;;;;;27.52;27.84;101313.78;5018683;28;20116;-65
2022/08/13 01:12:50;;;;;;;4.93;3.83;;;;;;;27.50;28.12;101315.06;5035108;28;20072;-65
2022/08/13 01:15:16;;;;;;;5.43;3.33;;;;;;;27.44;28.04;101316.81;5018839;28;20021;-65
2022/08/13 01:17:45;;;;;;;9.45;3.72;;;;;;;27.40;28.37;101321.06;5018876;28;20056;-66
2022/08/13 01:20:18;;;;;;;4.65;3.22;;;;;;;27.33;27.96;101316.69;5018786;28;20116;-65
2022/08/13 01:22:44;;;;;;;9.85;3.50;;;;;;;27.29;28.03;101315.44;5019526;28;20031;-66
2022/08/13 01:25:10;;;;;;;8.32;4.20;;;;;;;27.19;28.15;101311.31;5047776;28;20132;-66
2022/08/13 01:27:39;;;;;;;9.43;4.38;;;;;;;27.13;28.60;101312.22;5038316;28;20055;-65
2022/08/13 01:30:06;;;;;;;7.05;3.42;;;;;;;27.02;28.38;101306.63;5038594;28;20115;-65
2022/08/13 01:32:32;;;;;;;3.40;3.13;;;;;;;27.04;28.25;101319.09;5038426;28;20569;-65
2022/08/13 01:34:58;;;;;;;4.38;3.80;;;;;;;26.99;28.84;101321.66;5054844;28;20060;-65
2022/08/13 01:37:24;;;;;;;5.38;4.03;;;;;;;26.94;28.84;101312.41;5038210;28;20029;-65
2022/08/13 01:39:50;;;;;;;10.40;3.13;;;;;;;26.89;28.49;101310.31;5054707;28;20017;-65
2022/08/13 01:42:22;;;;;;;5.05;4.35;;;;;;;26.82;28.42;101309.53;5054598;28;20033;-66
2022/08/13 01:44:48;;;;;;;4.90;4.10;;;;;;;26.82;28.50;101309.53;5050200;28;20475;-65
2022/08/13 01:52:42;;;;;;;4.55;3.75;;;;;;;26.67;28.96;101311.72;5034692;28;20087;-66
2022/08/13 01:55:08;;;;;;;7.18;3.88;;;;;;;26.67;29.02;101317.22;5034478;28;20021;-65
2022/08/13 01:57:36;;;;;;;6.15;4.00;;;;;;;26.65;29.37;101322.13;5035678;28;20036;-65
2022/08/13 02:00:05;;;;;;;6.18;3.75;;;;;;;26.61;29.65;101307.13;5034420;28;20025;-65
2022/08/13 02:02:31;;;;;;;4.10;3.72;;;;;;;26.60;29.50;101321.94;5034369;28;20026;-66
2022/08/13 02:04:56;;;;;;;12.57;3.97;;;;;;;26.54;29.53;101320.06;5017773;28;20124;-65
2022/08/13 02:07:22;;;;;;;8.98;4.03;;;;;;;26.47;29.21;101313.75;5017726;28;20120;-66
2022/08/13 02:09:47;;;;;;;11.70;3.90;;;;;;;26.39;29.43;101309.38;5017645;28;20037;-66
2022/08/13 02:12:14;;;;;;;4.82;4.00;;;;;;;26.37;29.66;101316.16;5035436;28;20021;-66
2022/08/13 02:14:43;;;;;;;5.22;3.80;;;;;;;26.35;29.93;101318.31;5034222;28;20490;-66
2022/08/13 02:17:25;;;;;;;4.93;4.05;;;;;;;26.29;29.96;101319.19;5018148;28;20021;-65
2022/08/13 02:19:55;;;;;;;8.15;4.30;;;;;;;26.23;29.88;101320.91;5018983;28;20538;-65
2022/08/13 02:22:22;;;;;;;4.05;3.38;;;;;;;26.19;29.53;101314.16;5017374;28;20392;-65
2022/08/13 02:24:56;;;;;;;6.13;4.75;;;;;;;26.17;30.17;101320.91;5035009;28;20036;-65
2022/08/13 02:27:24;;;;;;;5.93;3.78;;;;;;;26.10;29.96;101309.09;5017347;28;20033;-65
2022/08/13 02:29:52;;;;;;;5.25;3.95;;;;;;;26.10;29.69;101320.09;5033796;28;20022;-65
2022/08/13 02:32:18;;;;;;;4.57;3.65;;;;;;;26.07;29.79;101315.03;5017502;28;20487;-64
2022/08/13 02:34:50;;;;;;;4.20;3.63;;;;;;;26.02;30.02;101319.25;5033757;28;20029;-65
2022/08/13 02:37:20;;;;;;;4.05;3.63;;;;;;;25.96;29.93;101322.06;5017515;28;20045;-65
2022/08/13 02:39:45;;;;;;;7.90;4.43;;;;;;;25.90;30.16;101315.53;5033762;28;20096;-65
2022/08/13 02:42:11;;;;;;;5.28;4.00;;;;;;;25.92;30.16;101329.03;5033655;28;20028;-66
2022/08/13 02:44:39;;;;;;;7.38;3.92;;;;;;;25.86;30.55;101316.16;5033570;28;20383;-65
2022/08/13 02:47:05;;;;;;;6.32;4.10;;;;;;;25.82;30.57;101317.69;5033494;28;20021;-65
2022/08/13 02:49:31;;;;;;;7.70;4.10;;;;;;;25.77;30.52;101318.31;5017242;28;20399;-65
2022/08/13 02:51:58;;;;;;;4.35;3.95;;;;;;;25.76;30.18;101313.91;5033445;28;20032;-65
2022/08/13 02:54:25;;;;;;;8.90;4.28;;;;;;;25.73;30.16;101318.97;5017279;28;20167;-65
2022/08/13 02:56:51;;;;;;;4.47;4.07;;;;;;;25.70;30.55;101314.75;5033354;28;20028;-65
2022/08/13 02:59:16;;;;;;;6.75;4.03;;;;;;;25.69;30.54;101324.03;5033288;28;20101;-65
2022/08/13 03:01:42;;;;;;;6.68;4.20;;;;;;;25.66;30.63;101329.97;5034427;28;20040;-65
2022/08/13 03:04:08;;;;;;;5.88;3.92;;;;;;;25.66;30.36;101321.72;5016684;28;20036;-65
2022/08/13 03:06:33;;;;;;;4.78;3.83;;;;;;;25.62;30.83;101323.25;5033427;28;20120;-65
2022/08/13 03:09:01;;;;;;;6.95;4.43;;;;;;;25.59;30.62;101323.66;5032993;28;20053;-65
2022/08/13 03:11:26;;;;;;;12.68;4.97;;;;;;;25.54;30.71;101331.72;5016879;28;20030;-65
2022/08/13 03:13:54;;;;;;;4.82;4.10;;;;;;;25.51;31.26;101329.38;5016475;28;20040;-64
2022/08/13 03:16:23;;;;;;;9.30;4.43;;;;;;;25.43;31.12;101326.84;5032919;28;20025;-65
2022/08/13 03:18:49;;;;;;;9.57;4.15;;;;;;;25.40;31.59;101330.81;5033096;28;20034;-65
2022/08/13 03:21:16;;;;;;;6.38;3.88;;;;;;;25.35;31.15;101338.00;5016338;28;20147;-64
2022/08/13 03:23:43;;;;;;;7.65;4.05;;;;;;;25.34;31.17;101328.13;5032857;28;20105;-65
2022/08/13 03:26:11;;;;;;;7.53;4.35;;;;;;;25.28;31.40;101335.31;5032583;28;20053;-65
2022/08/13 03:28:37;;;;;;;10.50;4.22;;;;;;;25.22;30.92;101327.06;5016337;28;20024;-65
2022/08/13 03:31:04;;;;;;;4.85;3.70;;;;;;;25.21;31.66;101328.97;5033300;28;20037;-64
2022/08/13 03:33:30;;;;;;;9.15;4.78;;;;;;;25.17;31.44;101327.72;5032808;28;20160;-65
2022/08/13 03:35:55;;;;;;;4.55;3.78;;;;;;;25.13;32.02;101339.31;5033906;28;20535;-65
2022/08/13 03:38:20;;;;;;;6.68;4.03;;;;;;;25.09;31.28;101332.56;5016064;28;20475;-65
2022/08/13 03:41:01;;;;;;;8.55;3.95;;;;;;;25.03;31.27;101333.41;5016106;28;20112;-64
2022/08/13 03:43:27;;;;;;;10.50;4.47;;;;;;;25.00;31.91;101342.06;5032686;28;20068;-65
2022/08/13 03:45:57;;;;;;;18.50;4.43;;;;;;;24.96;32.11;101332.59;5015950;28;20475;-64
2022/08/13 03:48:24;;;;;;;8.43;4.50;;;;;;;24.93;31.41;101341.22;5016308;28;20128;-64
2022/08/13 03:50:49;;;;;;;9.65;4.45;;;;;;;24.90;31.20;101335.09;5032294;28;20029;-64
2022/08/13 03:53:20;;;;;;;7.25;4.03;;;;;;;24.88;31.73;101342.69;5032386;28;20041;-66
2022/08/13 03:55:46;;;;;;;5.20;4.47;;;;;;;24.87;31.92;101340.16;5032326;28;20025;-64
2022/08/13 03:58:14;;;;;;;7.22;4.38;;;;;;;24.85;31.74;101348.59;5032348;28;20087;-64
2022/08/13 04:00:47;;;;;;;9.02;4.00;;;;;;;24.78;31.70;101342.25;5016022;28;20083;-65
2022/08/13 04:03:22;;;;;;;15.40;4.60;;;;;;;24.77;32.53;101340.53;5016708;28;20033;-65
2022/08/13 04:05:59;;;;;;;13.65;3.80;;;;;;;24.71;31.82;101344.13;5032297;28;20036;-64
2022/08/13 04:08:30;;;;;;;14.63;4.40;;;;;;;24.68;32.43;101343.72;5033254;28;20060;-64
2022/08/13 04:10:57;;;;;;;5.88;4.38;;;;;;;24.66;31.58;101349.38;5032024;28;20367;-65
2022/08/13 04:13:24;;;;;;;6.50;4.53;;;;;;;24.64;31.79;101350.66;5032076;28;20082;-64
2022/08/13 04:15:50;;;;;;;5.88;3.60;;;;;;;24.61;32.22;101349.16;5032052;28;20040;-64
2022/08/13 04:18:16;;;;;;;15.77;3.92;;;;;;;24.60;32.67;101344.72;5033494;28;20033;-64
2022/08/13 04:20:43;;;;;;;4.93;4.43;;;;;;;24.60;31.86;101352.94;5033279;28;20116;-64
2022/08/13 04:23:16;;;;;;;5.28;3.70;;;;;;;24.59;31.86;101359.50;5032094;28;20049;-64
2022/08/13 04:25:46;;;;;;;4.88;3.67;;;;;;;24.55;32.61;101352.72;5015272;28;20048;-65
2022/08/13 04:28:13;;;;;;;5.10;3.67;;;;;;;24.53;32.58;101354.84;5033103;28;20039;-64
2022/08/13 04:30:41;;;;;;;4.45;3.90;;;;;;;24.52;32.46;101358.63;5032024;28;20029;-64
2022/08/13 04:33:09;;;;;;;5.43;3.85;;;;;;;24.48;32.67;101357.38;5015673;28;20036;-64
2022/08/13 04:35:35;;;;;;;8.07;3.67;;;;;;;24.48;32.70;101362.84;5032086;28;20021;-65
2022/08/13 04:38:01;;;;;;;5.03;3.50;;;;;;;24.45;32.17;101360.53;5033148;28;20451;-64
2022/08/13 04:40:26;;;;;;;5.70;3.75;;;;;;;24.46;32.50;101370.41;5015834;28;20528;-64
2022/08/13 04:42:53;;;;;;;7.03;4.00;;;;;;;24.43;32.56;101370.00;5033328;28;20029;-64
2022/08/13 04:45:20;;;;;;;5.43;3.80;;;;;;;24.40;32.91;101359.44;5035907;28;20060;-64
2022/08/13 04:47:46;;;;;;;4.88;3.78;;;;;;;24.37;32.50;101366.19;5019356;28;20021;-64
2022/08/13 04:50:12;;;;;;;7.78;3.90;;;;;;;24.37;33.22;101366.19;5019181;28;20380;-64
2022/08/13 04:52:41;;;;;;;5.97;3.67;;;;;;;24.35;33.03;101351.84;5035740;28;20030;-64
2022/08/13 04:55:10;;;;;;;5.30;3.70;;;;;;;24.36;32.47;101353.53;5035736;28;20037;-64
2022/08/13 04:57:37;;;;;;;4.82;3.67;;;;;;;24.39;32.85;101355.00;5035679;28;20041;-64
2022/08/13 05:00:06;;;;;;;9.63;3.78;;;;;;;24.45;33.48;101367.88;5019037;28;20036;-64
2022/08/13 05:02:31;;;;;;;4.18;3.17;;;;;;;24.52;32.89;101361.38;5035650;28;20391;-64
2022/08/13 05:04:58;;;;;;;6.18;3.83;;;;;;;24.59;32.90;101364.97;5018923;28;20036;-65
2022/08/13 05:07:23;;;;;;;5.70;3.13;;;;;;;24.67;33.03;101362.03;5019300;28;20428;-65
2022/08/13 05:09:49;;;;;;;4.05;3.22;;;;;;;24.78;33.21;101357.84;5018954;28;20088;-65
2022/08/13 05:12:15;;;;;;;6.90;4.05;;;;;;;24.89;32.97;101371.81;5018895;28;20399;-65
2022/08/13 05:14:40;;;;;;;6.15;3.67;;;;;;;25.01;32.84;101368.44;5035322;28;20424;-64
2022/08/13 05:17:07;;;;;;;5.22;3.60;;;;;;;25.08;32.79;101370.13;5035120;28;20021;-65
2022/08/13 05:19:33;;;;;;;7.57;3.70;;;;;;;25.18;32.90;101373.25;5035254;28;20044;-64
2022/08/13 05:21:58;;;;;;;8.48;3.75;;;;;;;25.30;32.96;101381.72;5018584;28;20026;-64
2022/08/13 05:24:23;;;;;;;13.25;3.40;;;;;;;25.41;32.69;101375.56;5018497;28;20026;-64
2022/08/13 05:26:49;;;;;;;13.30;3.53;;;;;;;25.55;32.83;101376.44;5036195;28;20144;-64
2022/08/13 05:29:14;;;;;;;5.95;2.75;;;;;;;25.71;32.99;101376.81;5036034;28;20029;-64
2022/08/13 05:31:40;;;;;;;3.08;2.70;;;;;;;25.88;32.39;101377.22;5034928;28;20037;-64
2022/08/13 05:34:06;;;;;;;5.18;2.80;;;;;;;26.04;32.73;101371.25;5035355;28;20086;-65
2022/08/13 05:36:32;;;;;;;7.32;2.53;;;;;;;26.22;32.56;101365.91;5034824;28;20498;-65
2022/08/13 05:38:58;;;;;;;4.53;2.90;;;;;;;26.43;32.59;101362.00;5018306;28;20152;-65
2022/08/13 05:41:25;;;;;;;2.63;2.42;;;;;;;26.64;32.02;101369.91;5034785;28;20033;-65
2022/08/13 05:43:51;;;;;;;4.55;2.80;;;;;;;26.83;32.37;101371.69;5034773;28;20368;-65
2022/08/13 05:46:16;;;;;;;7.50;2.67;;;;;;;27.02;32.21;101364.38;5018099;28;20033;-65
2022/08/13 05:48:56;;;;;;;9.32;2.70;;;;;;;27.19;31.80;101371.81;5034433;28;20149;-65
2022/08/13 05:51:24;;;;;;;4.03;2.53;;;;;;;27.45;31.68;101367.19;5035027;28;20053;-65
2022/08/13 05:53:54;;;;;;;6.57;2.65;;;;;;;27.63;31.99;101369.97;5035264;28;20026;-65
2022/08/13 05:56:24;;;;;;;6.75;2.50;;;;;;;27.89;31.46;101382.63;5035715;28;20479;-65
2022/08/13 05:58:50;;;;;;;7.75;3.33;;;;;;;28.12;31.91;101358.81;5034493;28;20032;-64
2022/08/13 06:04:01;;;;;;;6.00;2.40;;;;;;;28.62;31.32;101369.59;5034860;28;20043;-66
2022/08/13 06:06:28;;;;;;;5.75;2.17;;;;;;;28.85;31.44;101359.50;5017860;28;20128;-65
2022/08/13 06:08:58;;;;;;;9.98;2.45;;;;;;;29.11;31.39;101369.28;5034128;28;20025;-65
2022/08/13 06:11:24;;;;;;;5.65;2.80;;;;;;;29.35;30.59;101359.13;5034216;28;20403;-65
2022/08/13 06:13:50;;;;;;;4.65;2.20;;;;;;;29.52;30.82;101351.78;5034292;28;20040;-66
2022/08/13 06:16:21;;;;;;;3.65;1.83;;;;;;;29.78;30.73;101367.88;5001339;28;20033;-66
2022/08/13 06:18:48;;;;;;;2.47;1.60;;;;;;;29.98;30.10;101368.31;5034136;28;20029;-65
2022/08/13 06:21:15;;;;;;;4.35;2.25;;;;;;;30.16;29.74;101363.72;5034125;28;20391;-65
2022/08/13 06:23:42;;;;;;;3.90;1.92;;;;;;;30.35;29.84;101362.44;5034111;28;20021;-65
2022/08/13 06:26:09;;;;;;;3.03;1.63;;;;;;;30.51;29.87;101368.06;5033861;28;20084;-66
2022/08/13 06:28:36;;;;;;;5.07;2.47;;;;;;;30.67;29.46;101362.81;5033799;28;20036;-65
2022/08/13 06:31:06;;;;;;;9.13;2.25;;;;;;;30.84;29.58;101360.91;5017655;28;20036;-65
2022/08/13 06:33:35;;;;;;;8.82;2.13;;;;;;;30.99;29.58;101359.28;5017334;28;20029;-64
2022/08/13 06:36:04;;;;;;;4.47;1.70;;;;;;;31.16;29.12;101359.28;5017292;28;20112;-64
2022/08/13 06:38:32;;;;;;;7.78;2.25;;;;;;;31.33;29.09;101362.88;5035011;28;20399;-65
2022/08/13 06:41:01;;;;;;;3.22;2.03;;;;;;;31.50;28.79;101360.97;5033898;28;20112;-65
2022/08/13 06:43:28;;;;;;;2.78;1.65;;;;;;;31.70;28.49;101366.81;5034816;28;20033;-65
2022/08/13 06:45:55;;;;;;;7.15;1.70;;;;;;;31.85;28.67;101373.66;5037510;28;20032;-66
2022/08/13 06:48:22;;;;;;;6.35;1.83;;;;;;;32.02;28.50;101375.28;5050469;28;20025;-65
2022/08/13 06:50:47;;;;;;;3.63;1.50;;;;;;;32.18;27.76;101368.88;5053329;28;20479;-65
2022/08/13 06:53:14;;;;;;;5.20;1.60;;;;;;;32.32;27.95;101365.69;5036702;28;20028;-64
2022/08/13 06:55:40;;;;;;;4.72;1.45;;;;;;;32.50;27.57;101368.94;5036652;28;20390;-65
2022/08/13 06:58:09;;;;;;;5.40;1.30;;;;;;;32.71;27.20;101368.09;5053433;28;20433;-65
2022/08/13 07:00:38;;;;;;;7.32;1.40;;;;;;;32.90;26.72;101364.94;5053055;28;20021;-65
2022/08/13 07:03:04;;;;;;;3.35;1.40;;;;;;;33.10;27.41;101367.94;5036517;28;20136;-66
2022/08/13 07:05:38;;;;;;;10.20;1.55;;;;;;;33.26;27.27;101376.13;5052223;28;20363;-66
2022/08/13 07:08:06;;;;;;;5.85;0.98;;;;;;;33.42;27.19;101367.91;5053073;28;20021;-66
2022/08/13 07:10:32;;;;;;;5.78;1.42;;;;;;;33.60;26.66;101376.66;5036516;28;20025;-66
2022/08/13 07:12:59;;;;;;;2.92;1.27;;;;;;;33.80;27.08;101371.22;5054157;28;20025;-66
2022/08/13 07:15:25;;;;;;;3.45;1.45;;;;;;;34.04;26.86;101363.28;5053995;28;20037;-66
2022/08/13 07:17:50;;;;;;;4.57;1.60;;;;;;;34.26;26.50;101371.44;5054156;28;20037;-66
2022/08/13 07:20:16;;;;;;;1.77;1.20;;;;;;;34.48;26.83;101367.34;5036088;28;20025;-66
2022/08/13 07:22:45;;;;;;;5.38;1.40;;;;;;;34.71;26.39;101366.03;5036059;28;20021;-67
2022/08/13 07:25:11;;;;;;;5.43;1.42;;;;;;;34.92;26.19;101364.97;5035964;28;20029;-66
2022/08/13 07:27:38;;;;;;;2.35;1.02;;;;;;;35.14;26.03;101363.88;5039317;28;20484;-66
2022/08/13 07:30:05;;;;;;;0.90;0.82;;;;;;;35.34;25.14;101363.88;5033617;28;20519;-66
2022/08/13 07:32:36;;;;;;;1.08;0.88;;;;;;;35.58;25.77;101362.16;5016869;28;20487;-67
2022/08/13 07:35:01;;;;;;;2.58;0.95;;;;;;;35.77;25.54;101363.22;5035720;28;20029;-65
2022/08/13 07:37:27;;;;;;;1.77;0.95;;;;;;;35.94;25.26;101363.72;5033803;28;20021;-65
2022/08/13 07:39:53;;;;;;;1.10;0.85;;;;;;;36.10;24.53;101361.72;5032529;28;20026;-65
2022/08/13 07:42:21;;;;;;;3.45;1.10;;;;;;;36.29;24.42;101375.91;5032458;28;20108;-65
2022/08/13 07:44:52;;;;;;;2.22;1.08;;;;;;;36.42;24.45;101372.47;5032480;28;20094;-65
2022/08/13 07:47:19;;;;;;;3.13;0.60;;;;;;;36.59;24.35;101367.38;5016562;28;20075;-66
2022/08/13 07:49:45;;;;;;;2.30;0.80;;;;;;;36.68;24.27;101368.44;5015897;28;20445;-65
2022/08/13 07:52:12;;;;;;;4.57;0.80;;;;;;;36.81;23.94;101376.16;5015861;28;20022;-66
2022/08/13 07:54:40;;;;;;;1.45;1.08;;;;;;;36.95;24.10;101371.59;5016010;28;20047;-66
2022/08/13 07:57:05;;;;;;;3.65;0.77;;;;;;;37.14;23.83;101374.53;5016207;28;20029;-66
2022/08/13 07:59:31;;;;;;;1.45;0.90;;;;;;;37.26;23.58;101374.97;5015815;28;20087;-65
2022/08/13 08:01:57;;;;;;;1.88;1.05;;;;;;;37.39;23.65;101373.44;4999638;28;20025;-65
2022/08/13 08:04:24;;;;;;;3.83;1.00;;;;;;;37.54;23.48;101376.13;5032144;28;20033;-65
2022/08/13 08:06:49;;;;;;;1.02;0.80;;;;;;;37.65;23.42;101372.94;5032401;28;20028;-66
2022/08/13 08:09:20;;;;;;;2.95;0.85;;;;;;;37.79;23.10;101375.88;5015558;28;20025;-66
2022/08/13 08:14:30;;;;;;;0.82;0.68;;;;;;;38.07;22.72;101375.00;5018462;28;20043;-65
2022/08/13 08:16:57;;;;;;;2.78;0.80;;;;;;;38.20;22.97;101379.84;5015504;28;20026;-64
2022/08/13 08:19:22;;;;;;;2.35;0.70;;;;;;;38.32;22.74;101377.50;5032156;28;20060;-65
2022/08/13 08:21:47;;;;;;;4.57;1.30;;;;;;;38.43;21.84;101372.56;5015671;28;20101;-65
2022/08/13 08:24:14;;;;;;;2.83;1.02;;;;;;;38.54;21.60;101378.88;5032066;28;20029;-65
2022/08/13 08:26:40;;;;;;;2.25;0.70;;;;;;;38.60;22.51;101377.66;5031925;28;20175;-66
2022/08/13 08:29:09;;;;;;;0.90;0.60;;;;;;;38.72;22.10;101369.63;5015380;28;20033;-65
2022/08/13 08:31:39;;;;;;;3.30;1.08;;;;;;;38.90;21.51;101378.06;5015937;28;20025;-65
2022/08/13 08:34:07;;;;;;;4.82;0.93;;;;;;;39.04;22.26;101372.50;5033132;28;20026;-65
2022/08/13 08:36:33;;;;;;;2.28;1.00;;;;;;;39.20;20.99;101375.88;5016066;28;20087;-65
2022/08/13 08:44:31;;;;;;;1.67;0.82;;;;;;;39.75;21.26;101366.50;5018039;28;20171;-65
2022/08/13 08:46:58;;;;;;;0.75;0.65;;;;;;;39.91;20.64;101369.81;5031886;28;20391;-65
2022/08/13 08:49:24;;;;;;;5.63;0.90;;;;;;;40.08;20.62;101364.41;5031558;28;20441;-65
2022/08/13 08:51:51;;;;;;;1.00;0.70;;;;;;;40.26;21.06;101363.44;5031850;28;20065;-66
2022/08/13 08:54:18;;;;;;;1.55;0.90;;;;;;;40.41;20.68;101368.72;5031696;28;20100;-66
2022/08/13 08:56:45;;;;;;;4.75;0.70;;;;;;;40.57;20.56;101374.84;5031760;28;20450;-66
2022/08/13 08:59:13;;;;;;;1.02;0.70;;;;;;;40.74;21.01;101369.38;5031634;28;20017;-65
2022/08/13 09:01:42;;;;;;;0.70;0.70;;;;;;;40.90;20.52;101375.50;5031692;28;20030;-65
2022/08/13 09:04:08;;;;;;;8.48;0.80;;;;;;;41.05;20.23;101361.06;5015174;28;20021;-65
2022/08/13 09:06:34;;;;;;;2.80;0.60;;;;;;;41.18;20.07;101360.16;5015226;28;20030;-66
2022/08/13 09:09:01;;;;;;;0.82;0.50;;;;;;;41.32;20.15;101360.97;5031573;28;20513;-65
2022/08/13 09:11:34;;;;;;;1.75;0.50;;;;;;;41.43;19.90;101350.25;4998882;28;20087;-66
2022/08/13 09:14:03;;;;;;;4.97;0.80;;;;;;;41.56;19.64;101344.50;5031717;28;20021;-65
2022/08/13 09:16:29;;;;;;;1.40;0.63;;;;;;;41.72;19.85;101345.75;5032797;28;20056;-65
2022/08/13 09:18:56;;;;;;;3.70;0.70;;;;;;;41.84;19.61;101344.31;5015292;28;20471;-66
2022/08/13 09:21:22;;;;;;;2.53;0.70;;;;;;;41.90;19.56;101343.00;5031557;28;20479;-65
2022/08/13 09:23:47;;;;;;;1.23;0.63;;;;;;;41.99;19.52;101346.69;5031422;28;20075;-64
2022/08/13 09:26:14;;;;;;;2.28;0.77;;;;;;;42.09;19.04;101340.75;5031253;28;20411;-66
2022/08/13 09:28:42;;;;;;;2.92;1.17;;;;;;;42.15;19.22;101339.47;5032287;28;20431;-66
2022/08/13 09:31:08;;;;;;;3.35;0.60;;;;;;;42.19;19.13;101337.63;5035064;28;20112;-65
2022/08/13 09:33:38;;;;;;;4.53;1.00;;;;;;;42.30;19.00;101338.97;5035003;28;20052;-66
2022/08/13 09:36:06;;;;;;;3.88;0.50;;;;;;;42.38;18.88;101331.72;5036191;28;20060;-66
2022/08/13 09:38:33;;;;;;;0.40;0.40;;;;;;;42.45;18.98;101332.03;5035051;28;20044;-66
2022/08/13 09:41:25;;;;;;;0.63;0.52;;;;;;;42.56;18.42;101334.22;5036087;28;20052;-66
2022/08/13 09:43:50;;;;;;;;;;;;;;;42.68;18.91;101331.59;5035372;28;20022;-66
2022/08/13 09:46:23;;;;;;;5.28;0.63;;;;;;;42.69;18.79;101336.03;5034763;28;19970;-65
2022/08/13 09:48:52;;;;;;;1.20;0.60;;;;;;;42.78;18.71;101325.59;5034691;28;20376;-66
2022/08/13 09:51:18;;;;;;;4.88;0.73;;;;;;;42.89;18.09;101323.25;5034750;28;20029;-65
2022/08/13 09:53:46;;;;;;;1.85;0.60;;;;;;;42.99;18.03;101320.13;5034624;28;20029;-65
2022/08/13 09:56:17;;;;;;;0.82;0.82;;;;;;;43.13;17.42;101317.09;5034680;28;20056;-65
2022/08/13 09:58:50;;;;;;;2.55;0.57;;;;;;;43.42;17.35;101315.19;5003114;28;20136;-66
2022/08/13 10:01:17;;;;;;;5.60;5.10;;;;;;;43.91;17.07;101324.13;5034661;28;20037;-66
2022/08/13 10:03:42;;;;;;;1.90;1.80;;;;;;;44.54;17.02;101317.41;5034448;28;20032;-66
2022/08/13 10:06:10;;;;;;;4.28;0.75;;;;;;;45.47;16.43;101320.47;5018152;28;20033;-66
2022/08/13 10:08:36;;;;;;;0.70;0.47;;;;;;;46.88;15.55;101315.69;5017691;28;20029;-65
2022/08/13 10:11:01;;;;;;;0.88;0.70;;;;;;;47.20;15.30;101306.06;5034279;28;20078;-66
2022/08/13 10:13:28;;;;;;;0.50;0.50;;;;;;;46.61;15.52;101319.31;5034278;28;20085;-66
2022/08/13 10:15:54;;;;;;;2.55;0.47;;;;;;;46.08;15.83;101306.34;5034288;28;20438;-66
2022/08/13 10:18:19;;;;;;;2.42;0.50;;;;;;;45.74;15.81;101307.63;5034219;28;20087;-65
2022/08/13 10:20:45;;;;;;;0.85;0.57;;;;;;;45.53;15.95;101302.06;5035518;28;20064;-65
2022/08/13 10:23:15;;;;;;;0.90;0.50;;;;;;;45.52;15.51;101299.56;5034162;28;20040;-65
2022/08/13 10:25:42;;;;;;;0.50;0.50;;;;;;;45.58;15.71;101298.16;5034039;28;20049;-65
2022/08/13 10:28:28;;;;;;;1.20;0.65;;;;;;;45.71;15.73;101301.88;5035183;28;20077;-66
2022/08/13 10:30:54;;;;;;;0.55;0.35;;;;;;;45.79;15.50;101298.09;5033965;28;20044;-65
2022/08/13 10:33:20;;;;;;;1.27;0.57;;;;;;;45.98;15.59;101301.97;5033983;28;20025;-66
2022/08/13 10:35:52;;;;;;;4.88;0.70;;;;;;;46.10;15.48;101301.94;5017296;28;20055;-66
2022/08/13 10:38:17;;;;;;;;;;;;;;;46.28;15.52;101302.50;5034183;28;20025;-65
2022/08/13 10:40:43;;;;;;;0.50;0.50;;;;;;;46.40;15.14;101301.69;5034962;28;20016;-66
2022/08/13 10:43:09;;;;;;;1.02;0.70;;;;;;;46.55;15.23;101298.06;5033790;28;20029;-65
2022/08/13 10:45:34;;;;;;;4.53;0.60;;;;;;;46.71;14.96;101290.44;5034878;28;20479;-65
2022/08/13 10:48:01;;;;;;;0.60;0.60;;;;;;;46.96;14.96;101294.84;5017273;28;20109;-66
2022/08/13 10:50:29;;;;;;;0.52;0.52;;;;;;;47.25;14.47;101294.44;5016902;28;20021;-66
2022/08/13 10:52:58;;;;;;;1.63;0.60;;;;;;;47.41;14.05;101294.41;5033513;28;20438;-66
2022/08/13 10:55:24;;;;;;;0.73;0.60;;;;;;;47.45;14.26;101286.81;5033543;28;20076;-64
2022/08/13 10:57:50;;;;;;;4.22;0.60;;;;;;;47.57;14.48;101288.78;5033341;28;20036;-65
2022/08/13 11:00:22;;;;;;;1.75;0.50;;;;;;;47.62;14.09;101292.16;5033441;28;20044;-66
2022/08/13 11:02:50;;;;;;;1.23;0.47;;;;;;;47.52;14.06;101283.38;5034550;28;20390;-66
2022/08/13 11:05:25;;;;;;;3.67;0.77;;;;;;;47.42;14.16;101290.41;5033395;28;20021;-66
2022/08/13 11:07:52;;;;;;;0.80;0.60;;;;;;;47.38;14.43;101291.50;5017603;28;20025;-65
2022/08/13 11:10:20;;;;;;;0.90;0.82;;;;;;;47.48;14.29;101282.44;5033102;28;20029;-65
2022/08/13 11:12:53;;;;;;;2.05;0.55;;;;;;;47.59;13.76;101277.88;5033402;28;20029;-66
2022/08/13 11:15:20;;;;;;;1.77;0.50;;;;;;;47.74;14.18;101286.38;5017349;28;20502;-66
2022/08/13 11:17:51;;;;;;;2.65;0.63;;;;;;;47.88;14.37;101271.72;5016627;28;20033;-66
2022/08/13 11:20:20;;;;;;;2.42;0.60;;;;;;;48.03;14.04;101256.59;5016606;28;20060;-66
2022/08/13 11:22:51;;;;;;;0.77;0.70;;;;;;;48.18;14.00;101244.34;5032932;28;20069;-66
2022/08/13 11:25:17;;;;;;;1.80;0.85;;;;;;;48.23;14.30;101248.94;5033988;28;20025;-65
2022/08/13 11:27:42;;;;;;;0.68;0.60;;;;;;;48.18;14.05;101252.88;5032929;28;20072;-65
2022/08/13 11:30:08;;;;;;;2.83;1.02;;;;;;;48.13;14.18;101256.03;5016310;28;20486;-66
2022/08/13 11:32:33;;;;;;;0.60;0.60;;;;;;;48.04;13.83;101252.56;5032766;28;20033;-66
2022/08/13 11:34:59;;;;;;;2.38;0.73;;;;;;;47.99;13.91;101249.19;5033888;28;20025;-66
2022/08/13 11:37:24;;;;;;;3.60;0.57;;;;;;;47.97;13.73;101254.44;5033858;28;20084;-66
2022/08/13 11:39:49;;;;;;;3.63;0.57;;;;;;;48.04;14.26;101252.56;5032645;28;20032;-66
2022/08/13 11:42:15;;;;;;;1.02;0.77;;;;;;;48.12;14.00;101237.31;5016044;28;20499;-65
2022/08/13 11:44:40;;;;;;;0.90;0.63;;;;;;;48.18;13.97;101247.19;5032613;28;20395;-66